Alsace Manor, Pennsylvania
Current Conditions -  °F | °C
As of 3:54 PM on Monday 24 Nov 2014 (Local Time) from KRDG Reporting Station
Clear Clear  
Wind Chill: 68°   Ceiling: Unl
Heat Index: 68°   Visibility: 10mi
Dew Point: 54°   Wind: 15mph
Humidity: 61%   Direction: 190°S
Pressure: 29.59"   Gusts: 24mph
Location:  40.4008°N, 75.8851°W
Report Text: KRDG 242054Z 19013G21KT 10SM CLR 20/12 A2959 RMK AO2 PK WND 22026/2028 SLP024 T02000122 53010
Loading
Personal Weather Stations






























Interactive Weather Map New forecast layout! Learn more

10-Day Weather Forecast

Advertisements
Track Severe Weather on mobile